sensor_id;sensor_type;location;lat;lon;timestamp;P1;durP1;ratioP1;P2;durP2;ratioP2
4867;SDS011;2448;48.086;10.862;2022-07-24T00:01:33;15.93;;;9.30;;
4867;SDS011;2448;48.086;10.862;2022-07-24T00:03:59;12.70;;;7.80;;
4867;SDS011;2448;48.086;10.862;2022-07-24T00:06:24;10.67;;;7.70;;
4867;SDS011;2448;48.086;10.862;2022-07-24T00:08:50;10.87;;;7.43;;
4867;SDS011;2448;48.086;10.862;2022-07-24T00:11:16;10.13;;;6.83;;
4867;SDS011;2448;48.086;10.862;2022-07-24T00:13:41;10.43;;;7.97;;
4867;SDS011;2448;48.086;10.862;2022-07-24T00:16:07;17.83;;;7.73;;
4867;SDS011;2448;48.086;10.862;2022-07-24T00:18:32;11.77;;;7.90;;
4867;SDS011;2448;48.086;10.862;2022-07-24T00:20:58;12.50;;;9.23;;
4867;SDS011;2448;48.086;10.862;2022-07-24T00:23:23;8.97;;;6.60;;
4867;SDS011;2448;48.086;10.862;2022-07-24T00:25:49;12.80;;;8.97;;
4867;SDS011;2448;48.086;10.862;2022-07-24T00:28:15;13.13;;;7.60;;
4867;SDS011;2448;48.086;10.862;2022-07-24T00:30:40;10.80;;;7.37;;
4867;SDS011;2448;48.086;10.862;2022-07-24T00:33:06;13.97;;;7.90;;
4867;SDS011;2448;48.086;10.862;2022-07-24T00:35:31;11.93;;;7.70;;
4867;SDS011;2448;48.086;10.862;2022-07-24T00:37:57;10.97;;;7.90;;
4867;SDS011;2448;48.086;10.862;2022-07-24T00:40:22;11.27;;;8.27;;
4867;SDS011;2448;48.086;10.862;2022-07-24T00:42:49;10.37;;;7.53;;
4867;SDS011;2448;48.086;10.862;2022-07-24T00:45:15;10.00;;;7.50;;
4867;SDS011;2448;48.086;10.862;2022-07-24T00:47:40;11.13;;;7.53;;
4867;SDS011;2448;48.086;10.862;2022-07-24T00:50:06;11.80;;;7.90;;
4867;SDS011;2448;48.086;10.862;2022-07-24T00:52:31;11.40;;;6.93;;
4867;SDS011;2448;48.086;10.862;2022-07-24T00:54:57;11.87;;;8.67;;
4867;SDS011;2448;48.086;10.862;2022-07-24T00:57:22;11.70;;;8.27;;
4867;SDS011;2448;48.086;10.862;2022-07-24T00:59:48;12.13;;;8.70;;
4867;SDS011;2448;48.086;10.862;2022-07-24T01:02:13;9.93;;;7.47;;
4867;SDS011;2448;48.086;10.862;2022-07-24T01:04:39;13.83;;;8.07;;
4867;SDS011;2448;48.086;10.862;2022-07-24T01:07:05;11.60;;;7.90;;
4867;SDS011;2448;48.086;10.862;2022-07-24T01:09:30;10.57;;;6.90;;
4867;SDS011;2448;48.086;10.862;2022-07-24T01:11:56;9.93;;;7.13;;
4867;SDS011;2448;48.086;10.862;2022-07-24T01:14:22;15.03;;;8.27;;
4867;SDS011;2448;48.086;10.862;2022-07-24T01:16:47;13.17;;;8.10;;
4867;SDS011;2448;48.086;10.862;2022-07-24T01:19:13;11.50;;;7.97;;
4867;SDS011;2448;48.086;10.862;2022-07-24T01:21:39;11.60;;;8.00;;
4867;SDS011;2448;48.086;10.862;2022-07-24T01:24:04;14.03;;;8.00;;
4867;SDS011;2448;48.086;10.862;2022-07-24T01:26:30;11.90;;;7.87;;
4867;SDS011;2448;48.086;10.862;2022-07-24T01:28:55;11.40;;;7.60;;
4867;SDS011;2448;48.086;10.862;2022-07-24T01:31:20;12.57;;;7.77;;
4867;SDS011;2448;48.086;10.862;2022-07-24T01:33:46;10.73;;;7.87;;
4867;SDS011;2448;48.086;10.862;2022-07-24T01:36:11;12.87;;;9.10;;
4867;SDS011;2448;48.086;10.862;2022-07-24T01:38:36;12.27;;;8.07;;
4867;SDS011;2448;48.086;10.862;2022-07-24T01:41:03;9.13;;;7.40;;
4867;SDS011;2448;48.086;10.862;2022-07-24T01:43:28;17.20;;;9.13;;
4867;SDS011;2448;48.086;10.862;2022-07-24T01:45:54;14.70;;;9.00;;
4867;SDS011;2448;48.086;10.862;2022-07-24T01:48:19;10.23;;;7.07;;
4867;SDS011;2448;48.086;10.862;2022-07-24T01:50:45;9.10;;;6.97;;
4867;SDS011;2448;48.086;10.862;2022-07-24T01:53:10;9.03;;;7.70;;
4867;SDS011;2448;48.086;10.862;2022-07-24T01:55:35;10.60;;;7.63;;
4867;SDS011;2448;48.086;10.862;2022-07-24T01:58:01;9.80;;;6.97;;
4867;SDS011;2448;48.086;10.862;2022-07-24T02:00:26;10.30;;;7.10;;
4867;SDS011;2448;48.086;10.862;2022-07-24T02:02:51;12.40;;;8.40;;
4867;SDS011;2448;48.086;10.862;2022-07-24T02:05:17;9.80;;;7.90;;
4867;SDS011;2448;48.086;10.862;2022-07-24T02:07:43;12.17;;;8.20;;
4867;SDS011;2448;48.086;10.862;2022-07-24T02:10:09;13.00;;;8.00;;
4867;SDS011;2448;48.086;10.862;2022-07-24T02:12:34;10.90;;;7.40;;
4867;SDS011;2448;48.086;10.862;2022-07-24T02:15:00;10.60;;;6.97;;
4867;SDS011;2448;48.086;10.862;2022-07-24T02:17:25;12.87;;;8.80;;
4867;SDS011;2448;48.086;10.862;2022-07-24T02:19:50;12.73;;;7.73;;
4867;SDS011;2448;48.086;10.862;2022-07-24T02:22:16;10.43;;;7.37;;
4867;SDS011;2448;48.086;10.862;2022-07-24T02:24:41;10.00;;;7.00;;
4867;SDS011;2448;48.086;10.862;2022-07-24T02:27:07;11.17;;;7.20;;
4867;SDS011;2448;48.086;10.862;2022-07-24T02:29:32;11.33;;;7.50;;
4867;SDS011;2448;48.086;10.862;2022-07-24T02:31:58;10.40;;;7.37;;
4867;SDS011;2448;48.086;10.862;2022-07-24T02:34:23;10.97;;;7.43;;
4867;SDS011;2448;48.086;10.862;2022-07-24T02:36:48;10.87;;;7.80;;
4867;SDS011;2448;48.086;10.862;2022-07-24T02:39:14;9.77;;;6.47;;
4867;SDS011;2448;48.086;10.862;2022-07-24T02:41:39;10.20;;;7.50;;
4867;SDS011;2448;48.086;10.862;2022-07-24T02:44:05;15.50;;;8.33;;
4867;SDS011;2448;48.086;10.862;2022-07-24T02:46:30;14.07;;;8.00;;
4867;SDS011;2448;48.086;10.862;2022-07-24T02:48:56;11.73;;;7.60;;
4867;SDS011;2448;48.086;10.862;2022-07-24T02:51:21;17.03;;;8.67;;
4867;SDS011;2448;48.086;10.862;2022-07-24T02:53:47;13.37;;;8.20;;
4867;SDS011;2448;48.086;10.862;2022-07-24T02:56:12;12.13;;;7.97;;
4867;SDS011;2448;48.086;10.862;2022-07-24T02:58:37;13.40;;;7.30;;
4867;SDS011;2448;48.086;10.862;2022-07-24T03:01:03;12.20;;;8.00;;
4867;SDS011;2448;48.086;10.862;2022-07-24T03:03:28;22.57;;;8.80;;
4867;SDS011;2448;48.086;10.862;2022-07-24T03:05:54;13.07;;;8.70;;
4867;SDS011;2448;48.086;10.862;2022-07-24T03:08:19;12.93;;;8.10;;
4867;SDS011;2448;48.086;10.862;2022-07-24T03:10:44;12.70;;;8.10;;
4867;SDS011;2448;48.086;10.862;2022-07-24T03:13:10;13.10;;;8.47;;
4867;SDS011;2448;48.086;10.862;2022-07-24T03:15:37;14.50;;;8.30;;
4867;SDS011;2448;48.086;10.862;2022-07-24T03:18:02;13.73;;;8.33;;
4867;SDS011;2448;48.086;10.862;2022-07-24T03:20:28;16.03;;;8.47;;
4867;SDS011;2448;48.086;10.862;2022-07-24T03:22:53;11.20;;;7.53;;
4867;SDS011;2448;48.086;10.862;2022-07-24T03:25:19;19.40;;;7.67;;
4867;SDS011;2448;48.086;10.862;2022-07-24T03:27:44;18.73;;;9.40;;
4867;SDS011;2448;48.086;10.862;2022-07-24T03:30:11;14.90;;;9.17;;
4867;SDS011;2448;48.086;10.862;2022-07-24T03:32:37;12.80;;;8.37;;
4867;SDS011;2448;48.086;10.862;2022-07-24T03:35:03;11.10;;;8.00;;
4867;SDS011;2448;48.086;10.862;2022-07-24T03:37:28;12.97;;;8.30;;
4867;SDS011;2448;48.086;10.862;2022-07-24T03:39:54;11.40;;;8.33;;
4867;SDS011;2448;48.086;10.862;2022-07-24T03:42:19;10.20;;;7.63;;
4867;SDS011;2448;48.086;10.862;2022-07-24T03:44:45;10.83;;;8.20;;
4867;SDS011;2448;48.086;10.862;2022-07-24T03:47:10;16.53;;;8.00;;
4867;SDS011;2448;48.086;10.862;2022-07-24T03:49:35;13.20;;;7.83;;
4867;SDS011;2448;48.086;10.862;2022-07-24T03:52:01;16.80;;;9.33;;
4867;SDS011;2448;48.086;10.862;2022-07-24T03:54:26;13.10;;;8.93;;
4867;SDS011;2448;48.086;10.862;2022-07-24T03:56:52;11.70;;;8.30;;
4867;SDS011;2448;48.086;10.862;2022-07-24T03:59:18;14.40;;;8.70;;
4867;SDS011;2448;48.086;10.862;2022-07-24T04:01:43;13.57;;;8.87;;
4867;SDS011;2448;48.086;10.862;2022-07-24T04:04:09;15.53;;;8.40;;
4867;SDS011;2448;48.086;10.862;2022-07-24T04:06:35;11.83;;;7.43;;
4867;SDS011;2448;48.086;10.862;2022-07-24T04:09:01;13.50;;;7.93;;
4867;SDS011;2448;48.086;10.862;2022-07-24T04:11:27;12.53;;;8.03;;
4867;SDS011;2448;48.086;10.862;2022-07-24T04:13:52;22.13;;;7.90;;
4867;SDS011;2448;48.086;10.862;2022-07-24T04:16:18;12.33;;;7.43;;
4867;SDS011;2448;48.086;10.862;2022-07-24T04:18:43;20.23;;;7.93;;
4867;SDS011;2448;48.086;10.862;2022-07-24T04:21:09;10.90;;;8.07;;
4867;SDS011;2448;48.086;10.862;2022-07-24T04:23:34;12.57;;;7.33;;
4867;SDS011;2448;48.086;10.862;2022-07-24T04:26:00;11.50;;;8.00;;
4867;SDS011;2448;48.086;10.862;2022-07-24T04:28:25;14.60;;;8.20;;
4867;SDS011;2448;48.086;10.862;2022-07-24T04:30:50;15.53;;;7.37;;
4867;SDS011;2448;48.086;10.862;2022-07-24T04:33:16;10.73;;;7.70;;
4867;SDS011;2448;48.086;10.862;2022-07-24T04:35:41;14.00;;;8.60;;
4867;SDS011;2448;48.086;10.862;2022-07-24T04:38:07;13.47;;;7.80;;
4867;SDS011;2448;48.086;10.862;2022-07-24T04:40:32;13.70;;;8.27;;
4867;SDS011;2448;48.086;10.862;2022-07-24T04:42:57;12.87;;;8.53;;
4867;SDS011;2448;48.086;10.862;2022-07-24T04:45:23;13.53;;;7.80;;
4867;SDS011;2448;48.086;10.862;2022-07-24T04:47:48;11.07;;;8.00;;
4867;SDS011;2448;48.086;10.862;2022-07-24T04:50:13;13.23;;;8.80;;
4867;SDS011;2448;48.086;10.862;2022-07-24T04:52:39;15.23;;;8.10;;
4867;SDS011;2448;48.086;10.862;2022-07-24T04:55:04;13.40;;;7.97;;
4867;SDS011;2448;48.086;10.862;2022-07-24T04:57:30;21.90;;;8.00;;
4867;SDS011;2448;48.086;10.862;2022-07-24T04:59:56;13.53;;;8.57;;
4867;SDS011;2448;48.086;10.862;2022-07-24T05:02:21;10.63;;;7.47;;
4867;SDS011;2448;48.086;10.862;2022-07-24T05:04:46;19.90;;;7.90;;
4867;SDS011;2448;48.086;10.862;2022-07-24T05:07:12;11.87;;;8.10;;
4867;SDS011;2448;48.086;10.862;2022-07-24T05:09:37;9.90;;;7.37;;
4867;SDS011;2448;48.086;10.862;2022-07-24T05:12:02;9.97;;;7.70;;
4867;SDS011;2448;48.086;10.862;2022-07-24T05:14:28;11.73;;;7.77;;
4867;SDS011;2448;48.086;10.862;2022-07-24T05:16:53;21.67;;;8.33;;
4867;SDS011;2448;48.086;10.862;2022-07-24T05:19:18;12.13;;;8.30;;
4867;SDS011;2448;48.086;10.862;2022-07-24T05:21:44;13.20;;;7.50;;
4867;SDS011;2448;48.086;10.862;2022-07-24T05:24:09;13.43;;;7.47;;
4867;SDS011;2448;48.086;10.862;2022-07-24T05:26:35;11.90;;;7.37;;
4867;SDS011;2448;48.086;10.862;2022-07-24T05:29:00;10.90;;;7.60;;
4867;SDS011;2448;48.086;10.862;2022-07-24T05:31:26;12.07;;;8.20;;
4867;SDS011;2448;48.086;10.862;2022-07-24T05:33:51;8.17;;;7.00;;
4867;SDS011;2448;48.086;10.862;2022-07-24T05:36:17;10.63;;;7.80;;
4867;SDS011;2448;48.086;10.862;2022-07-24T05:38:43;11.60;;;7.20;;
4867;SDS011;2448;48.086;10.862;2022-07-24T05:41:09;12.70;;;7.30;;
4867;SDS011;2448;48.086;10.862;2022-07-24T05:43:34;10.80;;;7.40;;
4867;SDS011;2448;48.086;10.862;2022-07-24T05:46:00;10.90;;;8.23;;
4867;SDS011;2448;48.086;10.862;2022-07-24T05:48:25;12.00;;;8.10;;
4867;SDS011;2448;48.086;10.862;2022-07-24T05:50:50;10.67;;;7.13;;
4867;SDS011;2448;48.086;10.862;2022-07-24T05:53:16;10.80;;;7.70;;
4867;SDS011;2448;48.086;10.862;2022-07-24T05:55:41;16.13;;;9.30;;
4867;SDS011;2448;48.086;10.862;2022-07-24T05:58:07;14.27;;;7.97;;
4867;SDS011;2448;48.086;10.862;2022-07-24T06:00:32;13.30;;;8.37;;
4867;SDS011;2448;48.086;10.862;2022-07-24T06:02:58;12.57;;;8.60;;
4867;SDS011;2448;48.086;10.862;2022-07-24T06:05:23;10.77;;;7.47;;
4867;SDS011;2448;48.086;10.862;2022-07-24T06:07:48;9.40;;;7.53;;
4867;SDS011;2448;48.086;10.862;2022-07-24T06:10:14;9.40;;;7.60;;
4867;SDS011;2448;48.086;10.862;2022-07-24T06:12:39;17.63;;;8.30;;
4867;SDS011;2448;48.086;10.862;2022-07-24T06:15:05;12.30;;;7.80;;
4867;SDS011;2448;48.086;10.862;2022-07-24T06:17:30;10.43;;;7.67;;
4867;SDS011;2448;48.086;10.862;2022-07-24T06:19:56;12.00;;;8.17;;
4867;SDS011;2448;48.086;10.862;2022-07-24T06:22:21;10.27;;;7.70;;
4867;SDS011;2448;48.086;10.862;2022-07-24T06:24:47;10.90;;;7.80;;
4867;SDS011;2448;48.086;10.862;2022-07-24T06:27:12;10.67;;;7.60;;
4867;SDS011;2448;48.086;10.862;2022-07-24T06:29:37;11.37;;;7.90;;
4867;SDS011;2448;48.086;10.862;2022-07-24T06:32:03;14.40;;;7.77;;
4867;SDS011;2448;48.086;10.862;2022-07-24T06:34:28;11.00;;;8.10;;
4867;SDS011;2448;48.086;10.862;2022-07-24T06:36:54;10.83;;;7.77;;
4867;SDS011;2448;48.086;10.862;2022-07-24T06:39:19;14.10;;;8.40;;
4867;SDS011;2448;48.086;10.862;2022-07-24T06:41:45;16.70;;;8.93;;
4867;SDS011;2448;48.086;10.862;2022-07-24T06:44:23;11.00;;;8.10;;
4867;SDS011;2448;48.086;10.862;2022-07-24T06:46:48;13.20;;;8.10;;
4867;SDS011;2448;48.086;10.862;2022-07-24T06:49:14;12.40;;;8.60;;
4867;SDS011;2448;48.086;10.862;2022-07-24T06:51:39;15.40;;;8.60;;
4867;SDS011;2448;48.086;10.862;2022-07-24T06:54:05;11.73;;;8.67;;
4867;SDS011;2448;48.086;10.862;2022-07-24T06:56:30;11.73;;;8.10;;
4867;SDS011;2448;48.086;10.862;2022-07-24T06:58:56;13.33;;;8.43;;
4867;SDS011;2448;48.086;10.862;2022-07-24T07:01:21;11.00;;;7.27;;
4867;SDS011;2448;48.086;10.862;2022-07-24T07:03:47;11.83;;;8.50;;
4867;SDS011;2448;48.086;10.862;2022-07-24T07:06:13;13.93;;;7.53;;
4867;SDS011;2448;48.086;10.862;2022-07-24T07:08:38;15.83;;;7.63;;
4867;SDS011;2448;48.086;10.862;2022-07-24T07:11:04;10.27;;;7.27;;
4867;SDS011;2448;48.086;10.862;2022-07-24T07:13:29;11.87;;;7.13;;
4867;SDS011;2448;48.086;10.862;2022-07-24T07:15:54;7.93;;;6.60;;
4867;SDS011;2448;48.086;10.862;2022-07-24T07:18:20;10.30;;;7.70;;
4867;SDS011;2448;48.086;10.862;2022-07-24T07:20:45;9.73;;;7.60;;
4867;SDS011;2448;48.086;10.862;2022-07-24T07:23:12;10.50;;;8.10;;
4867;SDS011;2448;48.086;10.862;2022-07-24T07:25:37;11.50;;;7.50;;
4867;SDS011;2448;48.086;10.862;2022-07-24T07:28:02;11.07;;;7.53;;
4867;SDS011;2448;48.086;10.862;2022-07-24T07:30:28;12.13;;;7.27;;
4867;SDS011;2448;48.086;10.862;2022-07-24T07:32:53;11.73;;;7.17;;
4867;SDS011;2448;48.086;10.862;2022-07-24T07:35:19;7.30;;;6.37;;
4867;SDS011;2448;48.086;10.862;2022-07-24T07:37:46;10.23;;;8.03;;
4867;SDS011;2448;48.086;10.862;2022-07-24T07:40:12;11.00;;;7.30;;
4867;SDS011;2448;48.086;10.862;2022-07-24T07:42:37;13.30;;;6.50;;
4867;SDS011;2448;48.086;10.862;2022-07-24T07:45:02;10.00;;;6.70;;
4867;SDS011;2448;48.086;10.862;2022-07-24T07:47:29;7.07;;;6.37;;
4867;SDS011;2448;48.086;10.862;2022-07-24T07:49:54;7.00;;;5.70;;
4867;SDS011;2448;48.086;10.862;2022-07-24T07:52:20;15.43;;;7.00;;
4867;SDS011;2448;48.086;10.862;2022-07-24T07:54:46;9.70;;;6.23;;
4867;SDS011;2448;48.086;10.862;2022-07-24T07:57:11;11.10;;;6.77;;
4867;SDS011;2448;48.086;10.862;2022-07-24T07:59:37;7.10;;;6.27;;
4867;SDS011;2448;48.086;10.862;2022-07-24T08:02:02;7.80;;;6.50;;
4867;SDS011;2448;48.086;10.862;2022-07-24T08:04:27;7.00;;;6.00;;
4867;SDS011;2448;48.086;10.862;2022-07-24T08:06:53;5.43;;;4.90;;
4867;SDS011;2448;48.086;10.862;2022-07-24T08:09:18;6.53;;;5.47;;
4867;SDS011;2448;48.086;10.862;2022-07-24T08:11:46;6.00;;;5.05;;
4867;SDS011;2448;48.086;10.862;2022-07-24T08:14:11;14.18;;;5.40;;
4867;SDS011;2448;48.086;10.862;2022-07-24T08:16:37;8.07;;;5.10;;
4867;SDS011;2448;48.086;10.862;2022-07-24T08:19:02;6.18;;;5.57;;
4867;SDS011;2448;48.086;10.862;2022-07-24T08:21:28;5.50;;;5.00;;
4867;SDS011;2448;48.086;10.862;2022-07-24T08:23:53;8.23;;;4.50;;
4867;SDS011;2448;48.086;10.862;2022-07-24T08:26:19;4.70;;;4.32;;
4867;SDS011;2448;48.086;10.862;2022-07-24T08:28:44;5.47;;;4.55;;
4867;SDS011;2448;48.086;10.862;2022-07-24T08:31:10;4.75;;;4.43;;
4867;SDS011;2448;48.086;10.862;2022-07-24T08:33:35;4.55;;;4.07;;
4867;SDS011;2448;48.086;10.862;2022-07-24T08:36:00;4.80;;;4.30;;
4867;SDS011;2448;48.086;10.862;2022-07-24T08:38:26;3.90;;;3.65;;
4867;SDS011;2448;48.086;10.862;2022-07-24T08:40:51;4.45;;;4.15;;
4867;SDS011;2448;48.086;10.862;2022-07-24T08:43:17;4.15;;;3.85;;
4867;SDS011;2448;48.086;10.862;2022-07-24T08:45:42;7.28;;;4.50;;
4867;SDS011;2448;48.086;10.862;2022-07-24T08:48:10;4.40;;;4.00;;
4867;SDS011;2448;48.086;10.862;2022-07-24T08:50:37;4.63;;;4.28;;
4867;SDS011;2448;48.086;10.862;2022-07-24T08:53:03;4.03;;;3.83;;
4867;SDS011;2448;48.086;10.862;2022-07-24T08:55:29;9.43;;;3.78;;
4867;SDS011;2448;48.086;10.862;2022-07-24T08:57:58;8.38;;;4.07;;
4867;SDS011;2448;48.086;10.862;2022-07-24T09:00:24;13.60;;;4.50;;
4867;SDS011;2448;48.086;10.862;2022-07-24T09:02:49;5.13;;;4.47;;
4867;SDS011;2448;48.086;10.862;2022-07-24T09:05:15;4.30;;;4.00;;
4867;SDS011;2448;48.086;10.862;2022-07-24T09:07:40;4.97;;;4.47;;
4867;SDS011;2448;48.086;10.862;2022-07-24T09:10:13;5.03;;;4.63;;
4867;SDS011;2448;48.086;10.862;2022-07-24T09:12:40;4.55;;;4.18;;
4867;SDS011;2448;48.086;10.862;2022-07-24T09:15:16;5.07;;;4.38;;
4867;SDS011;2448;48.086;10.862;2022-07-24T09:20:13;4.88;;;4.13;;
4867;SDS011;2448;48.086;10.862;2022-07-24T09:22:39;8.63;;;5.35;;
4867;SDS011;2448;48.086;10.862;2022-07-24T09:27:31;4.88;;;4.47;;
4867;SDS011;2448;48.086;10.862;2022-07-24T09:29:56;5.38;;;4.70;;
4867;SDS011;2448;48.086;10.862;2022-07-24T09:32:22;8.20;;;4.03;;
4867;SDS011;2448;48.086;10.862;2022-07-24T09:34:50;4.85;;;4.55;;
4867;SDS011;2448;48.086;10.862;2022-07-24T09:37:16;4.88;;;4.47;;
4867;SDS011;2448;48.086;10.862;2022-07-24T09:39:41;6.30;;;5.20;;
4867;SDS011;2448;48.086;10.862;2022-07-24T09:42:07;4.65;;;4.30;;
4867;SDS011;2448;48.086;10.862;2022-07-24T09:44:33;4.85;;;4.45;;
4867;SDS011;2448;48.086;10.862;2022-07-24T09:47:08;17.40;;;4.95;;
4867;SDS011;2448;48.086;10.862;2022-07-24T09:49:35;10.77;;;4.78;;
4867;SDS011;2448;48.086;10.862;2022-07-24T09:52:13;5.18;;;4.35;;
4867;SDS011;2448;48.086;10.862;2022-07-24T09:54:44;4.65;;;4.35;;
4867;SDS011;2448;48.086;10.862;2022-07-24T09:59:57;5.70;;;5.20;;
4867;SDS011;2448;48.086;10.862;2022-07-24T10:02:27;5.55;;;5.05;;
4867;SDS011;2448;48.086;10.862;2022-07-24T10:04:53;5.63;;;4.57;;
4867;SDS011;2448;48.086;10.862;2022-07-24T10:07:20;5.20;;;4.80;;
4867;SDS011;2448;48.086;10.862;2022-07-24T10:09:46;5.45;;;4.68;;
4867;SDS011;2448;48.086;10.862;2022-07-24T10:12:13;5.07;;;4.50;;
4867;SDS011;2448;48.086;10.862;2022-07-24T10:14:39;4.88;;;4.47;;
4867;SDS011;2448;48.086;10.862;2022-07-24T10:17:06;5.03;;;4.63;;
4867;SDS011;2448;48.086;10.862;2022-07-24T10:19:38;5.85;;;5.30;;
4867;SDS011;2448;48.086;10.862;2022-07-24T10:22:03;5.63;;;4.72;;
4867;SDS011;2448;48.086;10.862;2022-07-24T10:27:26;4.53;;;4.15;;
4867;SDS011;2448;48.086;10.862;2022-07-24T10:29:53;6.00;;;5.07;;
4867;SDS011;2448;48.086;10.862;2022-07-24T10:32:18;7.78;;;5.15;;
4867;SDS011;2448;48.086;10.862;2022-07-24T10:37:23;4.80;;;4.40;;
4867;SDS011;2448;48.086;10.862;2022-07-24T10:39:53;4.90;;;4.50;;
4867;SDS011;2448;48.086;10.862;2022-07-24T10:42:19;5.80;;;4.97;;
4867;SDS011;2448;48.086;10.862;2022-07-24T10:45:01;5.50;;;5.00;;
4867;SDS011;2448;48.086;10.862;2022-07-24T10:47:30;5.03;;;4.55;;
4867;SDS011;2448;48.086;10.862;2022-07-24T10:49:57;7.97;;;4.40;;
4867;SDS011;2448;48.086;10.862;2022-07-24T10:52:30;6.00;;;5.35;;
4867;SDS011;2448;48.086;10.862;2022-07-24T10:57:45;6.80;;;5.00;;
4867;SDS011;2448;48.086;10.862;2022-07-24T11:00:21;5.83;;;5.23;;
4867;SDS011;2448;48.086;10.862;2022-07-24T11:02:56;6.53;;;5.10;;
4867;SDS011;2448;48.086;10.862;2022-07-24T11:05:29;5.13;;;4.70;;
4867;SDS011;2448;48.086;10.862;2022-07-24T11:10:46;5.55;;;4.85;;
4867;SDS011;2448;48.086;10.862;2022-07-24T11:18:37;8.05;;;5.30;;
4867;SDS011;2448;48.086;10.862;2022-07-24T11:21:03;5.10;;;4.65;;
4867;SDS011;2448;48.086;10.862;2022-07-24T11:23:28;4.80;;;4.40;;
4867;SDS011;2448;48.086;10.862;2022-07-24T11:26:39;5.20;;;4.80;;
4867;SDS011;2448;48.086;10.862;2022-07-24T11:28:40;7.68;;;5.07;;
4867;SDS011;2448;48.086;10.862;2022-07-24T11:31:05;9.25;;;4.28;;
4867;SDS011;2448;48.086;10.862;2022-07-24T11:33:31;6.40;;;4.50;;
4867;SDS011;2448;48.086;10.862;2022-07-24T11:35:56;5.35;;;4.85;;
4867;SDS011;2448;48.086;10.862;2022-07-24T11:38:27;4.97;;;4.57;;
4867;SDS011;2448;48.086;10.862;2022-07-24T11:41:03;5.28;;;4.78;;
4867;SDS011;2448;48.086;10.862;2022-07-24T11:43:29;4.43;;;4.03;;
4867;SDS011;2448;48.086;10.862;2022-07-24T11:45:54;6.10;;;4.77;;
4867;SDS011;2448;48.086;10.862;2022-07-24T11:48:20;7.50;;;4.53;;
4867;SDS011;2448;48.086;10.862;2022-07-24T11:50:45;9.13;;;4.67;;
4867;SDS011;2448;48.086;10.862;2022-07-24T11:53:11;5.10;;;4.70;;
4867;SDS011;2448;48.086;10.862;2022-07-24T11:55:37;5.50;;;4.43;;
4867;SDS011;2448;48.086;10.862;2022-07-24T11:58:02;5.30;;;4.80;;
4867;SDS011;2448;48.086;10.862;2022-07-24T12:00:28;13.27;;;4.60;;
4867;SDS011;2448;48.086;10.862;2022-07-24T12:02:54;5.30;;;4.63;;
4867;SDS011;2448;48.086;10.862;2022-07-24T12:05:26;5.27;;;4.63;;
4867;SDS011;2448;48.086;10.862;2022-07-24T12:07:52;5.27;;;4.77;;
4867;SDS011;2448;48.086;10.862;2022-07-24T12:10:19;5.07;;;4.50;;
4867;SDS011;2448;48.086;10.862;2022-07-24T12:12:46;6.27;;;4.90;;
4867;SDS011;2448;48.086;10.862;2022-07-24T12:15:12;5.17;;;4.67;;
4867;SDS011;2448;48.086;10.862;2022-07-24T12:20:22;6.60;;;4.80;;
4867;SDS011;2448;48.086;10.862;2022-07-24T12:22:48;5.40;;;4.72;;
4867;SDS011;2448;48.086;10.862;2022-07-24T12:25:13;6.20;;;4.80;;
4867;SDS011;2448;48.086;10.862;2022-07-24T12:27:41;4.87;;;4.37;;
4867;SDS011;2448;48.086;10.862;2022-07-24T12:32:52;11.27;;;4.13;;
4867;SDS011;2448;48.086;10.862;2022-07-24T12:35:17;9.40;;;4.72;;
4867;SDS011;2448;48.086;10.862;2022-07-24T12:37:42;4.80;;;4.40;;
4867;SDS011;2448;48.086;10.862;2022-07-24T12:40:08;6.47;;;4.90;;
4867;SDS011;2448;48.086;10.862;2022-07-24T12:42:34;5.10;;;4.60;;
4867;SDS011;2448;48.086;10.862;2022-07-24T12:45:06;5.03;;;4.60;;
4867;SDS011;2448;48.086;10.862;2022-07-24T12:47:33;5.40;;;4.90;;
4867;SDS011;2448;48.086;10.862;2022-07-24T12:49:58;4.78;;;4.35;;
4867;SDS011;2448;48.086;10.862;2022-07-24T12:52:36;6.00;;;4.47;;
4867;SDS011;2448;48.086;10.862;2022-07-24T12:55:03;6.07;;;4.22;;
4867;SDS011;2448;48.086;10.862;2022-07-24T12:57:28;4.93;;;4.53;;
4867;SDS011;2448;48.086;10.862;2022-07-24T12:59:58;8.13;;;4.60;;
4867;SDS011;2448;48.086;10.862;2022-07-24T13:02:24;6.60;;;4.70;;
4867;SDS011;2448;48.086;10.862;2022-07-24T13:04:51;10.68;;;5.20;;
4867;SDS011;2448;48.086;10.862;2022-07-24T13:07:18;4.90;;;4.40;;
4867;SDS011;2448;48.086;10.862;2022-07-24T13:09:43;5.13;;;4.63;;
4867;SDS011;2448;48.086;10.862;2022-07-24T13:12:09;4.95;;;4.20;;
4867;SDS011;2448;48.086;10.862;2022-07-24T13:14:35;5.17;;;4.40;;
4867;SDS011;2448;48.086;10.862;2022-07-24T13:17:02;4.90;;;4.47;;
4867;SDS011;2448;48.086;10.862;2022-07-24T13:19:28;4.88;;;4.40;;
4867;SDS011;2448;48.086;10.862;2022-07-24T13:21:53;6.32;;;4.50;;
4867;SDS011;2448;48.086;10.862;2022-07-24T13:24:20;5.88;;;3.72;;
4867;SDS011;2448;48.086;10.862;2022-07-24T13:26:47;4.82;;;4.43;;
4867;SDS011;2448;48.086;10.862;2022-07-24T13:29:13;4.20;;;3.90;;
4867;SDS011;2448;48.086;10.862;2022-07-24T13:31:40;4.82;;;4.30;;
4867;SDS011;2448;48.086;10.862;2022-07-24T13:34:07;4.75;;;4.32;;
4867;SDS011;2448;48.086;10.862;2022-07-24T13:36:34;10.07;;;4.40;;
4867;SDS011;2448;48.086;10.862;2022-07-24T13:39:01;5.82;;;3.80;;
4867;SDS011;2448;48.086;10.862;2022-07-24T13:41:29;4.95;;;4.55;;
4867;SDS011;2448;48.086;10.862;2022-07-24T13:43:55;5.65;;;4.43;;
4867;SDS011;2448;48.086;10.862;2022-07-24T13:46:21;4.57;;;4.18;;
4867;SDS011;2448;48.086;10.862;2022-07-24T13:48:48;5.55;;;4.65;;
4867;SDS011;2448;48.086;10.862;2022-07-24T13:51:13;6.07;;;4.30;;
4867;SDS011;2448;48.086;10.862;2022-07-24T13:53:40;4.00;;;3.70;;
4867;SDS011;2448;48.086;10.862;2022-07-24T13:56:06;4.68;;;4.28;;
4867;SDS011;2448;48.086;10.862;2022-07-24T13:58:32;4.82;;;4.32;;
4867;SDS011;2448;48.086;10.862;2022-07-24T14:01:01;3.65;;;3.42;;
4867;SDS011;2448;48.086;10.862;2022-07-24T14:03:26;5.97;;;4.05;;
4867;SDS011;2448;48.086;10.862;2022-07-24T14:05:52;4.35;;;3.95;;
4867;SDS011;2448;48.086;10.862;2022-07-24T14:08:18;5.00;;;3.85;;
4867;SDS011;2448;48.086;10.862;2022-07-24T14:10:43;4.55;;;4.15;;
4867;SDS011;2448;48.086;10.862;2022-07-24T14:13:09;5.00;;;4.07;;
4867;SDS011;2448;48.086;10.862;2022-07-24T14:15:35;4.30;;;4.00;;
4867;SDS011;2448;48.086;10.862;2022-07-24T14:18:01;3.92;;;3.63;;
4867;SDS011;2448;48.086;10.862;2022-07-24T14:20:26;4.60;;;4.15;;
4867;SDS011;2448;48.086;10.862;2022-07-24T14:22:52;4.72;;;4.30;;
4867;SDS011;2448;48.086;10.862;2022-07-24T14:25:17;3.80;;;3.55;;
4867;SDS011;2448;48.086;10.862;2022-07-24T14:27:43;4.68;;;4.28;;
4867;SDS011;2448;48.086;10.862;2022-07-24T14:30:08;4.25;;;3.95;;
4867;SDS011;2448;48.086;10.862;2022-07-24T14:32:34;3.88;;;3.55;;
4867;SDS011;2448;48.086;10.862;2022-07-24T14:34:59;5.22;;;4.60;;
4867;SDS011;2448;48.086;10.862;2022-07-24T14:37:25;6.28;;;4.05;;
4867;SDS011;2448;48.086;10.862;2022-07-24T14:39:50;3.92;;;3.70;;
4867;SDS011;2448;48.086;10.862;2022-07-24T14:42:15;4.38;;;3.97;;
4867;SDS011;2448;48.086;10.862;2022-07-24T14:44:41;4.10;;;3.70;;
4867;SDS011;2448;48.086;10.862;2022-07-24T14:47:06;7.25;;;4.22;;
4867;SDS011;2448;48.086;10.862;2022-07-24T14:49:32;5.72;;;4.80;;
4867;SDS011;2448;48.086;10.862;2022-07-24T14:51:57;5.35;;;3.70;;
4867;SDS011;2448;48.086;10.862;2022-07-24T14:54:23;4.25;;;3.88;;
4867;SDS011;2448;48.086;10.862;2022-07-24T14:56:48;5.05;;;4.63;;
4867;SDS011;2448;48.086;10.862;2022-07-24T14:59:14;4.53;;;4.13;;
4867;SDS011;2448;48.086;10.862;2022-07-24T15:01:40;7.15;;;4.97;;
4867;SDS011;2448;48.086;10.862;2022-07-24T15:04:05;5.07;;;4.13;;
4867;SDS011;2448;48.086;10.862;2022-07-24T15:06:31;4.82;;;4.30;;
4867;SDS011;2448;48.086;10.862;2022-07-24T15:08:56;22.42;;;4.03;;
4867;SDS011;2448;48.086;10.862;2022-07-24T15:11:22;6.10;;;4.45;;
4867;SDS011;2448;48.086;10.862;2022-07-24T15:13:53;4.68;;;4.15;;
4867;SDS011;2448;48.086;10.862;2022-07-24T15:16:18;5.70;;;4.40;;
4867;SDS011;2448;48.086;10.862;2022-07-24T15:18:43;4.53;;;4.13;;